sensor_id;sensor_type;location;lat;lon;timestamp;temperature;humidity
16995;DHT22;8614;48.522;9.206;2022-10-17T00:00:16;13.30;99.90
16995;DHT22;8614;48.522;9.206;2022-10-17T00:02:44;13.30;99.90
16995;DHT22;8614;48.522;9.206;2022-10-17T00:05:11;13.30;99.90
16995;DHT22;8614;48.522;9.206;2022-10-17T00:07:38;13.30;99.90
16995;DHT22;8614;48.522;9.206;2022-10-17T00:10:06;13.30;99.90
16995;DHT22;8614;48.522;9.206;2022-10-17T00:12:33;13.20;99.90
16995;DHT22;8614;48.522;9.206;2022-10-17T00:15:02;13.20;99.90
16995;DHT22;8614;48.522;9.206;2022-10-17T00:17:30;13.20;99.90
16995;DHT22;8614;48.522;9.206;2022-10-17T00:19:59;13.20;99.90
16995;DHT22;8614;48.522;9.206;2022-10-17T00:22:26;13.20;99.90
16995;DHT22;8614;48.522;9.206;2022-10-17T00:24:53;13.20;99.90
16995;DHT22;8614;48.522;9.206;2022-10-17T00:27:20;13.10;99.90
16995;DHT22;8614;48.522;9.206;2022-10-17T00:29:47;13.10;99.90
16995;DHT22;8614;48.522;9.206;2022-10-17T00:32:15;13.10;99.90
16995;DHT22;8614;48.522;9.206;2022-10-17T00:34:41;13.10;99.90
16995;DHT22;8614;48.522;9.206;2022-10-17T00:37:10;13.00;99.90
16995;DHT22;8614;48.522;9.206;2022-10-17T00:39:37;13.00;99.90
16995;DHT22;8614;48.522;9.206;2022-10-17T00:42:04;12.90;99.90
16995;DHT22;8614;48.522;9.206;2022-10-17T00:47:35;12.80;99.90
16995;DHT22;8614;48.522;9.206;2022-10-17T00:50:02;12.80;99.90
16995;DHT22;8614;48.522;9.206;2022-10-17T00:52:32;12.80;99.90
16995;DHT22;8614;48.522;9.206;2022-10-17T00:55:05;12.80;99.90
16995;DHT22;8614;48.522;9.206;2022-10-17T00:57:34;12.70;99.90
16995;DHT22;8614;48.522;9.206;2022-10-17T01:00:04;12.60;99.90
16995;DHT22;8614;48.522;9.206;2022-10-17T01:02:33;12.60;99.90
16995;DHT22;8614;48.522;9.206;2022-10-17T01:05:00;12.50;99.90
16995;DHT22;8614;48.522;9.206;2022-10-17T01:07:28;12.40;99.90
16995;DHT22;8614;48.522;9.206;2022-10-17T01:09:57;12.40;99.90
16995;DHT22;8614;48.522;9.206;2022-10-17T01:12:27;12.40;99.90
16995;DHT22;8614;48.522;9.206;2022-10-17T01:15:04;12.40;99.90
16995;DHT22;8614;48.522;9.206;2022-10-17T01:17:49;12.30;99.90
16995;DHT22;8614;48.522;9.206;2022-10-17T01:20:47;12.20;99.90
16995;DHT22;8614;48.522;9.206;2022-10-17T01:23:29;12.20;99.90
16995;DHT22;8614;48.522;9.206;2022-10-17T01:26:15;12.20;99.90
16995;DHT22;8614;48.522;9.206;2022-10-17T01:29:07;12.20;99.90
16995;DHT22;8614;48.522;9.206;2022-10-17T01:31:41;12.20;99.90
16995;DHT22;8614;48.522;9.206;2022-10-17T01:34:14;12.20;99.90
16995;DHT22;8614;48.522;9.206;2022-10-17T01:36:48;12.10;99.90
16995;DHT22;8614;48.522;9.206;2022-10-17T01:39:21;12.10;99.90
16995;DHT22;8614;48.522;9.206;2022-10-17T01:41:54;12.10;99.90
16995;DHT22;8614;48.522;9.206;2022-10-17T01:44:27;12.00;99.90
16995;DHT22;8614;48.522;9.206;2022-10-17T01:47:02;11.90;99.90
16995;DHT22;8614;48.522;9.206;2022-10-17T01:49:32;11.80;99.90
16995;DHT22;8614;48.522;9.206;2022-10-17T01:52:05;11.70;99.90
16995;DHT22;8614;48.522;9.206;2022-10-17T01:54:38;11.70;99.90
16995;DHT22;8614;48.522;9.206;2022-10-17T01:57:10;11.60;99.90
16995;DHT22;8614;48.522;9.206;2022-10-17T01:59:41;11.60;99.90
16995;DHT22;8614;48.522;9.206;2022-10-17T02:02:13;11.60;99.90
16995;DHT22;8614;48.522;9.206;2022-10-17T02:04:42;11.50;99.90
16995;DHT22;8614;48.522;9.206;2022-10-17T02:07:11;11.50;99.90
16995;DHT22;8614;48.522;9.206;2022-10-17T02:09:38;11.60;99.90
16995;DHT22;8614;48.522;9.206;2022-10-17T02:12:20;11.60;99.90
16995;DHT22;8614;48.522;9.206;2022-10-17T02:15:01;11.60;99.90
16995;DHT22;8614;48.522;9.206;2022-10-17T02:17:43;11.50;99.90
16995;DHT22;8614;48.522;9.206;2022-10-17T02:20:19;11.50;99.90
16995;DHT22;8614;48.522;9.206;2022-10-17T02:22:53;11.50;99.90
16995;DHT22;8614;48.522;9.206;2022-10-17T02:25:28;11.50;99.90
16995;DHT22;8614;48.522;9.206;2022-10-17T02:28:02;11.50;99.90
16995;DHT22;8614;48.522;9.206;2022-10-17T02:30:34;11.40;99.90
16995;DHT22;8614;48.522;9.206;2022-10-17T02:33:08;11.40;99.90
16995;DHT22;8614;48.522;9.206;2022-10-17T02:35:40;11.40;99.90
16995;DHT22;8614;48.522;9.206;2022-10-17T02:38:10;11.30;99.90
16995;DHT22;8614;48.522;9.206;2022-10-17T02:40:38;11.40;99.90
16995;DHT22;8614;48.522;9.206;2022-10-17T02:43:06;11.40;99.90
16995;DHT22;8614;48.522;9.206;2022-10-17T02:45:36;11.40;99.90
16995;DHT22;8614;48.522;9.206;2022-10-17T02:48:07;11.40;99.90
16995;DHT22;8614;48.522;9.206;2022-10-17T02:50:42;11.40;99.90
16995;DHT22;8614;48.522;9.206;2022-10-17T02:53:14;11.40;99.90
16995;DHT22;8614;48.522;9.206;2022-10-17T02:55:47;11.40;99.90
16995;DHT22;8614;48.522;9.206;2022-10-17T02:58:19;11.40;99.90
16995;DHT22;8614;48.522;9.206;2022-10-17T03:00:47;11.40;99.90
16995;DHT22;8614;48.522;9.206;2022-10-17T03:03:21;11.40;99.90
16995;DHT22;8614;48.522;9.206;2022-10-17T03:05:48;11.30;99.90
16995;DHT22;8614;48.522;9.206;2022-10-17T03:08:15;11.20;99.90
16995;DHT22;8614;48.522;9.206;2022-10-17T03:10:42;11.10;99.90
16995;DHT22;8614;48.522;9.206;2022-10-17T03:13:09;11.00;99.90
16995;DHT22;8614;48.522;9.206;2022-10-17T03:15:39;11.00;99.90
16995;DHT22;8614;48.522;9.206;2022-10-17T03:18:06;10.90;99.90
16995;DHT22;8614;48.522;9.206;2022-10-17T03:20:34;10.90;99.90
16995;DHT22;8614;48.522;9.206;2022-10-17T03:23:01;10.90;99.90
16995;DHT22;8614;48.522;9.206;2022-10-17T03:25:28;10.90;99.90
16995;DHT22;8614;48.522;9.206;2022-10-17T03:27:57;10.90;99.90
16995;DHT22;8614;48.522;9.206;2022-10-17T03:30:25;10.90;99.90
16995;DHT22;8614;48.522;9.206;2022-10-17T03:32:52;10.90;99.90
16995;DHT22;8614;48.522;9.206;2022-10-17T03:35:19;10.90;99.90
16995;DHT22;8614;48.522;9.206;2022-10-17T03:37:50;10.80;99.90
16995;DHT22;8614;48.522;9.206;2022-10-17T03:40:20;10.80;99.90
16995;DHT22;8614;48.522;9.206;2022-10-17T03:42:47;10.80;99.90
16995;DHT22;8614;48.522;9.206;2022-10-17T03:45:15;10.80;99.90
16995;DHT22;8614;48.522;9.206;2022-10-17T03:47:42;10.70;99.90
16995;DHT22;8614;48.522;9.206;2022-10-17T03:50:09;10.80;99.90
16995;DHT22;8614;48.522;9.206;2022-10-17T03:52:37;10.80;99.90
16995;DHT22;8614;48.522;9.206;2022-10-17T03:55:06;10.80;99.90
16995;DHT22;8614;48.522;9.206;2022-10-17T03:57:34;10.70;99.90
16995;DHT22;8614;48.522;9.206;2022-10-17T04:00:04;10.70;99.90
16995;DHT22;8614;48.522;9.206;2022-10-17T04:02:39;10.60;99.90
16995;DHT22;8614;48.522;9.206;2022-10-17T04:05:09;10.60;99.90
16995;DHT22;8614;48.522;9.206;2022-10-17T04:07:36;10.70;99.90
16995;DHT22;8614;48.522;9.206;2022-10-17T04:10:06;10.60;99.90
16995;DHT22;8614;48.522;9.206;2022-10-17T04:12:33;10.60;99.90
16995;DHT22;8614;48.522;9.206;2022-10-17T04:15:00;10.60;99.90
16995;DHT22;8614;48.522;9.206;2022-10-17T04:17:29;10.60;99.90
16995;DHT22;8614;48.522;9.206;2022-10-17T04:19:57;10.60;99.90
16995;DHT22;8614;48.522;9.206;2022-10-17T04:22:24;10.60;99.90
16995;DHT22;8614;48.522;9.206;2022-10-17T04:24:51;10.50;99.90
16995;DHT22;8614;48.522;9.206;2022-10-17T04:27:34;10.50;99.90
16995;DHT22;8614;48.522;9.206;2022-10-17T04:30:01;10.50;99.90
16995;DHT22;8614;48.522;9.206;2022-10-17T04:32:30;10.50;99.90
16995;DHT22;8614;48.522;9.206;2022-10-17T04:35:07;10.50;99.90
16995;DHT22;8614;48.522;9.206;2022-10-17T04:37:34;10.50;99.90
16995;DHT22;8614;48.522;9.206;2022-10-17T04:40:08;10.50;99.90
16995;DHT22;8614;48.522;9.206;2022-10-17T04:42:36;10.50;99.90
16995;DHT22;8614;48.522;9.206;2022-10-17T04:45:05;10.40;99.90
16995;DHT22;8614;48.522;9.206;2022-10-17T04:47:32;10.40;99.90
16995;DHT22;8614;48.522;9.206;2022-10-17T04:49:59;10.40;99.90
16995;DHT22;8614;48.522;9.206;2022-10-17T04:52:26;10.40;99.90
16995;DHT22;8614;48.522;9.206;2022-10-17T04:54:53;10.50;99.90
16995;DHT22;8614;48.522;9.206;2022-10-17T04:57:20;10.50;99.90
16995;DHT22;8614;48.522;9.206;2022-10-17T05:00:08;10.50;99.90
16995;DHT22;8614;48.522;9.206;2022-10-17T05:02:50;10.40;99.90
16995;DHT22;8614;48.522;9.206;2022-10-17T05:05:19;10.40;99.90
16995;DHT22;8614;48.522;9.206;2022-10-17T05:07:48;10.50;99.90
16995;DHT22;8614;48.522;9.206;2022-10-17T05:10:18;10.40;99.90
16995;DHT22;8614;48.522;9.206;2022-10-17T05:12:47;10.40;99.90
16995;DHT22;8614;48.522;9.206;2022-10-17T05:15:18;10.40;99.90
16995;DHT22;8614;48.522;9.206;2022-10-17T05:17:45;10.30;99.90
16995;DHT22;8614;48.522;9.206;2022-10-17T05:20:12;10.30;99.90
16995;DHT22;8614;48.522;9.206;2022-10-17T05:22:40;10.30;99.90
16995;DHT22;8614;48.522;9.206;2022-10-17T05:25:07;10.30;99.90
16995;DHT22;8614;48.522;9.206;2022-10-17T05:27:34;10.30;99.90
16995;DHT22;8614;48.522;9.206;2022-10-17T05:30:03;10.30;99.90
16995;DHT22;8614;48.522;9.206;2022-10-17T05:32:34;10.30;99.90
16995;DHT22;8614;48.522;9.206;2022-10-17T05:35:02;10.30;99.90
16995;DHT22;8614;48.522;9.206;2022-10-17T05:37:31;10.30;99.90
16995;DHT22;8614;48.522;9.206;2022-10-17T05:39:59;10.30;99.90
16995;DHT22;8614;48.522;9.206;2022-10-17T05:42:28;10.30;99.90
16995;DHT22;8614;48.522;9.206;2022-10-17T05:44:56;10.30;99.90
16995;DHT22;8614;48.522;9.206;2022-10-17T05:47:24;10.30;99.90
16995;DHT22;8614;48.522;9.206;2022-10-17T05:49:53;10.30;99.90
16995;DHT22;8614;48.522;9.206;2022-10-17T05:52:26;10.30;99.90
16995;DHT22;8614;48.522;9.206;2022-10-17T05:55:01;10.40;99.90
16995;DHT22;8614;48.522;9.206;2022-10-17T05:57:28;10.40;99.90
16995;DHT22;8614;48.522;9.206;2022-10-17T05:59:56;10.40;99.90
16995;DHT22;8614;48.522;9.206;2022-10-17T06:02:23;10.40;99.90
16995;DHT22;8614;48.522;9.206;2022-10-17T06:04:50;10.50;99.90
16995;DHT22;8614;48.522;9.206;2022-10-17T06:07:20;10.50;99.90
16995;DHT22;8614;48.522;9.206;2022-10-17T06:09:48;10.50;99.90
16995;DHT22;8614;48.522;9.206;2022-10-17T06:12:15;10.50;99.90
16995;DHT22;8614;48.522;9.206;2022-10-17T06:14:43;10.60;99.90
16995;DHT22;8614;48.522;9.206;2022-10-17T06:17:11;10.70;99.90
16995;DHT22;8614;48.522;9.206;2022-10-17T06:19:38;10.80;99.90
16995;DHT22;8614;48.522;9.206;2022-10-17T06:22:06;10.80;99.90
16995;DHT22;8614;48.522;9.206;2022-10-17T06:24:35;10.80;99.90
16995;DHT22;8614;48.522;9.206;2022-10-17T06:27:03;10.90;99.90
16995;DHT22;8614;48.522;9.206;2022-10-17T06:29:30;10.90;99.90
16995;DHT22;8614;48.522;9.206;2022-10-17T06:31:57;11.00;99.90
16995;DHT22;8614;48.522;9.206;2022-10-17T06:34:25;11.00;99.90
16995;DHT22;8614;48.522;9.206;2022-10-17T06:36:52;11.10;99.90
16995;DHT22;8614;48.522;9.206;2022-10-17T06:39:19;11.30;99.90
16995;DHT22;8614;48.522;9.206;2022-10-17T06:41:57;11.60;99.90
16995;DHT22;8614;48.522;9.206;2022-10-17T06:44:38;11.90;99.90
16995;DHT22;8614;48.522;9.206;2022-10-17T06:47:26;12.00;99.90
16995;DHT22;8614;48.522;9.206;2022-10-17T06:49:57;12.10;99.90
16995;DHT22;8614;48.522;9.206;2022-10-17T06:52:30;12.30;99.90
16995;DHT22;8614;48.522;9.206;2022-10-17T06:55:17;12.40;99.90
16995;DHT22;8614;48.522;9.206;2022-10-17T06:57:55;12.50;99.90
16995;DHT22;8614;48.522;9.206;2022-10-17T07:00:41;12.70;99.90
16995;DHT22;8614;48.522;9.206;2022-10-17T07:03:10;12.80;99.90
16995;DHT22;8614;48.522;9.206;2022-10-17T07:05:36;12.80;99.90
16995;DHT22;8614;48.522;9.206;2022-10-17T07:08:04;12.80;99.90
16995;DHT22;8614;48.522;9.206;2022-10-17T07:10:31;12.80;99.90
16995;DHT22;8614;48.522;9.206;2022-10-17T07:13:04;12.80;99.90
16995;DHT22;8614;48.522;9.206;2022-10-17T07:15:32;12.80;99.90
16995;DHT22;8614;48.522;9.206;2022-10-17T07:17:59;12.80;99.90
16995;DHT22;8614;48.522;9.206;2022-10-17T07:20:27;12.90;99.90
16995;DHT22;8614;48.522;9.206;2022-10-17T07:22:55;13.00;99.90
16995;DHT22;8614;48.522;9.206;2022-10-17T07:25:23;13.30;99.90
16995;DHT22;8614;48.522;9.206;2022-10-17T07:27:54;13.60;99.90
16995;DHT22;8614;48.522;9.206;2022-10-17T07:30:23;14.10;99.90
16995;DHT22;8614;48.522;9.206;2022-10-17T07:32:56;14.60;99.90
16995;DHT22;8614;48.522;9.206;2022-10-17T07:35:23;15.10;99.90
16995;DHT22;8614;48.522;9.206;2022-10-17T07:37:50;15.60;99.90
16995;DHT22;8614;48.522;9.206;2022-10-17T07:40:19;16.10;99.90
16995;DHT22;8614;48.522;9.206;2022-10-17T07:42:46;16.60;99.90
16995;DHT22;8614;48.522;9.206;2022-10-17T07:45:16;17.00;99.90
16995;DHT22;8614;48.522;9.206;2022-10-17T07:47:47;17.30;99.90
16995;DHT22;8614;48.522;9.206;2022-10-17T07:50:15;17.50;99.90
16995;DHT22;8614;48.522;9.206;2022-10-17T07:52:42;17.80;99.90
16995;DHT22;8614;48.522;9.206;2022-10-17T07:55:09;18.10;99.90
16995;DHT22;8614;48.522;9.206;2022-10-17T07:57:36;18.40;99.90
16995;DHT22;8614;48.522;9.206;2022-10-17T08:00:06;18.70;99.90
16995;DHT22;8614;48.522;9.206;2022-10-17T08:02:38;19.00;99.90
16995;DHT22;8614;48.522;9.206;2022-10-17T08:05:07;19.20;99.90
16995;DHT22;8614;48.522;9.206;2022-10-17T08:07:34;19.10;99.90
16995;DHT22;8614;48.522;9.206;2022-10-17T08:10:01;19.10;99.90
16995;DHT22;8614;48.522;9.206;2022-10-17T08:12:28;19.10;99.90
16995;DHT22;8614;48.522;9.206;2022-10-17T08:14:57;19.30;99.90
16995;DHT22;8614;48.522;9.206;2022-10-17T08:17:24;19.60;99.90
16995;DHT22;8614;48.522;9.206;2022-10-17T08:19:51;19.90;99.90
16995;DHT22;8614;48.522;9.206;2022-10-17T08:22:19;20.20;99.90
16995;DHT22;8614;48.522;9.206;2022-10-17T08:24:48;20.40;99.90
16995;DHT22;8614;48.522;9.206;2022-10-17T08:27:15;20.40;99.90
16995;DHT22;8614;48.522;9.206;2022-10-17T08:29:48;20.50;99.90
16995;DHT22;8614;48.522;9.206;2022-10-17T08:32:18;20.60;99.90
16995;DHT22;8614;48.522;9.206;2022-10-17T08:34:45;20.80;99.90
16995;DHT22;8614;48.522;9.206;2022-10-17T08:37:12;20.90;99.90
16995;DHT22;8614;48.522;9.206;2022-10-17T08:39:40;21.00;99.90
16995;DHT22;8614;48.522;9.206;2022-10-17T08:42:29;21.00;99.90
16995;DHT22;8614;48.522;9.206;2022-10-17T08:45:09;21.10;99.90
16995;DHT22;8614;48.522;9.206;2022-10-17T08:47:41;21.20;99.90
16995;DHT22;8614;48.522;9.206;2022-10-17T08:50:13;21.30;99.90
16995;DHT22;8614;48.522;9.206;2022-10-17T08:52:45;21.30;99.90
16995;DHT22;8614;48.522;9.206;2022-10-17T08:55:17;21.50;99.90
16995;DHT22;8614;48.522;9.206;2022-10-17T08:57:47;21.50;99.90
16995;DHT22;8614;48.522;9.206;2022-10-17T09:00:17;21.50;99.90
16995;DHT22;8614;48.522;9.206;2022-10-17T09:02:53;21.50;99.90
16995;DHT22;8614;48.522;9.206;2022-10-17T09:05:35;21.70;99.90
16995;DHT22;8614;48.522;9.206;2022-10-17T09:08:12;21.80;99.90
16995;DHT22;8614;48.522;9.206;2022-10-17T09:10:49;22.00;99.90
16995;DHT22;8614;48.522;9.206;2022-10-17T09:13:26;22.20;99.90
16995;DHT22;8614;48.522;9.206;2022-10-17T09:16:10;22.30;99.90
16995;DHT22;8614;48.522;9.206;2022-10-17T09:18:42;22.50;99.90
16995;DHT22;8614;48.522;9.206;2022-10-17T09:21:18;22.70;99.90
16995;DHT22;8614;48.522;9.206;2022-10-17T09:23:50;22.60;99.90
16995;DHT22;8614;48.522;9.206;2022-10-17T09:26:20;22.70;99.90
16995;DHT22;8614;48.522;9.206;2022-10-17T09:28:52;22.70;99.90
16995;DHT22;8614;48.522;9.206;2022-10-17T09:31:22;22.90;99.90
16995;DHT22;8614;48.522;9.206;2022-10-17T09:33:54;23.00;99.90
16995;DHT22;8614;48.522;9.206;2022-10-17T09:36:24;23.10;99.90
16995;DHT22;8614;48.522;9.206;2022-10-17T09:38:54;23.10;99.90
16995;DHT22;8614;48.522;9.206;2022-10-17T09:41:33;23.10;99.90
16995;DHT22;8614;48.522;9.206;2022-10-17T09:44:13;23.10;99.90
16995;DHT22;8614;48.522;9.206;2022-10-17T09:46:42;23.20;99.90
16995;DHT22;8614;48.522;9.206;2022-10-17T09:49:17;23.10;99.90
16995;DHT22;8614;48.522;9.206;2022-10-17T09:51:45;23.10;99.90
16995;DHT22;8614;48.522;9.206;2022-10-17T09:54:19;23.20;99.90
16995;DHT22;8614;48.522;9.206;2022-10-17T09:56:59;23.30;99.90
16995;DHT22;8614;48.522;9.206;2022-10-17T09:59:32;23.30;99.90
16995;DHT22;8614;48.522;9.206;2022-10-17T10:02:16;23.20;99.90
16995;DHT22;8614;48.522;9.206;2022-10-17T10:04:58;23.30;99.90
16995;DHT22;8614;48.522;9.206;2022-10-17T10:07:26;23.10;99.90
16995;DHT22;8614;48.522;9.206;2022-10-17T10:09:54;23.00;99.90
16995;DHT22;8614;48.522;9.206;2022-10-17T10:12:24;23.00;99.90
16995;DHT22;8614;48.522;9.206;2022-10-17T10:14:52;23.00;99.90
16995;DHT22;8614;48.522;9.206;2022-10-17T10:17:37;23.10;99.90
16995;DHT22;8614;48.522;9.206;2022-10-17T10:20:26;23.00;99.90
16995;DHT22;8614;48.522;9.206;2022-10-17T10:23:13;23.00;99.90
16995;DHT22;8614;48.522;9.206;2022-10-17T10:25:56;23.10;99.90
16995;DHT22;8614;48.522;9.206;2022-10-17T10:28:29;23.20;99.90
16995;DHT22;8614;48.522;9.206;2022-10-17T10:30:58;23.30;99.90
16995;DHT22;8614;48.522;9.206;2022-10-17T10:33:27;23.30;99.90
16995;DHT22;8614;48.522;9.206;2022-10-17T10:35:57;23.30;99.90
16995;DHT22;8614;48.522;9.206;2022-10-17T10:38:25;23.30;99.90
16995;DHT22;8614;48.522;9.206;2022-10-17T10:40:55;23.30;99.90
16995;DHT22;8614;48.522;9.206;2022-10-17T10:43:32;23.30;99.90
16995;DHT22;8614;48.522;9.206;2022-10-17T10:46:03;23.30;99.90
16995;DHT22;8614;48.522;9.206;2022-10-17T10:48:33;23.30;99.90
16995;DHT22;8614;48.522;9.206;2022-10-17T10:51:03;23.30;99.90
16995;DHT22;8614;48.522;9.206;2022-10-17T10:53:37;23.30;99.90
16995;DHT22;8614;48.522;9.206;2022-10-17T10:56:10;23.20;99.90
16995;DHT22;8614;48.522;9.206;2022-10-17T10:58:49;23.20;99.90
16995;DHT22;8614;48.522;9.206;2022-10-17T11:01:24;23.20;99.90
16995;DHT22;8614;48.522;9.206;2022-10-17T11:04:09;23.20;99.90
16995;DHT22;8614;48.522;9.206;2022-10-17T11:06:42;23.20;99.90
16995;DHT22;8614;48.522;9.206;2022-10-17T11:09:15;23.20;99.90
16995;DHT22;8614;48.522;9.206;2022-10-17T11:11:47;23.20;99.90
16995;DHT22;8614;48.522;9.206;2022-10-17T11:14:19;23.10;99.90
16995;DHT22;8614;48.522;9.206;2022-10-17T11:16:53;23.10;99.90
16995;DHT22;8614;48.522;9.206;2022-10-17T11:19:25;23.10;99.90
16995;DHT22;8614;48.522;9.206;2022-10-17T11:22:03;23.00;99.90
16995;DHT22;8614;48.522;9.206;2022-10-17T11:24:34;23.00;99.90
16995;DHT22;8614;48.522;9.206;2022-10-17T11:27:05;22.90;99.90
16995;DHT22;8614;48.522;9.206;2022-10-17T11:29:36;22.80;99.90
16995;DHT22;8614;48.522;9.206;2022-10-17T11:32:07;22.70;99.90
16995;DHT22;8614;48.522;9.206;2022-10-17T11:34:38;22.70;99.90
16995;DHT22;8614;48.522;9.206;2022-10-17T11:37:11;22.60;99.90
16995;DHT22;8614;48.522;9.206;2022-10-17T11:39:43;22.60;99.90
16995;DHT22;8614;48.522;9.206;2022-10-17T11:42:18;22.60;99.90
16995;DHT22;8614;48.522;9.206;2022-10-17T11:44:48;22.60;99.90
16995;DHT22;8614;48.522;9.206;2022-10-17T11:47:33;22.60;99.90
16995;DHT22;8614;48.522;9.206;2022-10-17T11:50:06;22.60;99.90
16995;DHT22;8614;48.522;9.206;2022-10-17T11:52:40;22.60;99.90
16995;DHT22;8614;48.522;9.206;2022-10-17T11:55:13;22.60;99.90
16995;DHT22;8614;48.522;9.206;2022-10-17T11:57:49;22.60;99.90
16995;DHT22;8614;48.522;9.206;2022-10-17T12:00:25;22.50;99.90
16995;DHT22;8614;48.522;9.206;2022-10-17T12:03:04;22.50;99.90
16995;DHT22;8614;48.522;9.206;2022-10-17T12:05:38;22.60;99.90
16995;DHT22;8614;48.522;9.206;2022-10-17T12:08:11;22.60;99.90
16995;DHT22;8614;48.522;9.206;2022-10-17T12:10:44;22.60;99.90
16995;DHT22;8614;48.522;9.206;2022-10-17T12:13:49;22.60;99.90
16995;DHT22;8614;48.522;9.206;2022-10-17T12:16:49;22.60;99.90
16995;DHT22;8614;48.522;9.206;2022-10-17T12:19:26;22.70;99.90
16995;DHT22;8614;48.522;9.206;2022-10-17T12:21:58;22.70;99.90
16995;DHT22;8614;48.522;9.206;2022-10-17T12:24:34;22.80;99.90
16995;DHT22;8614;48.522;9.206;2022-10-17T12:27:22;22.80;99.90
16995;DHT22;8614;48.522;9.206;2022-10-17T12:29:58;22.80;99.90
16995;DHT22;8614;48.522;9.206;2022-10-17T12:32:26;22.90;99.90
16995;DHT22;8614;48.522;9.206;2022-10-17T12:34:55;22.90;99.90
16995;DHT22;8614;48.522;9.206;2022-10-17T12:40:54;22.90;99.90
16995;DHT22;8614;48.522;9.206;2022-10-17T12:43:55;22.90;99.90
16995;DHT22;8614;48.522;9.206;2022-10-17T12:46:54;23.00;99.90
16995;DHT22;8614;48.522;9.206;2022-10-17T12:49:39;23.10;99.90
16995;DHT22;8614;48.522;9.206;2022-10-17T12:52:16;23.10;99.90
16995;DHT22;8614;48.522;9.206;2022-10-17T12:54:46;23.10;99.90
16995;DHT22;8614;48.522;9.206;2022-10-17T12:57:18;23.10;99.90
16995;DHT22;8614;48.522;9.206;2022-10-17T12:59:47;23.10;99.90
16995;DHT22;8614;48.522;9.206;2022-10-17T13:02:18;23.10;99.90
16995;DHT22;8614;48.522;9.206;2022-10-17T13:04:48;23.20;99.90
16995;DHT22;8614;48.522;9.206;2022-10-17T13:07:18;23.20;99.90
16995;DHT22;8614;48.522;9.206;2022-10-17T13:09:47;23.20;99.90
16995;DHT22;8614;48.522;9.206;2022-10-17T13:12:18;23.20;99.90
16995;DHT22;8614;48.522;9.206;2022-10-17T13:14:50;23.20;99.90
16995;DHT22;8614;48.522;9.206;2022-10-17T13:17:23;23.20;99.90
16995;DHT22;8614;48.522;9.206;2022-10-17T13:19:52;23.20;99.90
16995;DHT22;8614;48.522;9.206;2022-10-17T13:22:21;23.20;99.90
16995;DHT22;8614;48.522;9.206;2022-10-17T13:24:49;23.20;99.90
16995;DHT22;8614;48.522;9.206;2022-10-17T13:27:25;23.20;99.90
16995;DHT22;8614;48.522;9.206;2022-10-17T13:29:53;23.20;99.90
16995;DHT22;8614;48.522;9.206;2022-10-17T13:32:22;23.20;99.90
16995;DHT22;8614;48.522;9.206;2022-10-17T13:35:08;23.20;99.90
16995;DHT22;8614;48.522;9.206;2022-10-17T13:37:36;23.20;99.90
16995;DHT22;8614;48.522;9.206;2022-10-17T13:40:05;23.20;99.90
16995;DHT22;8614;48.522;9.206;2022-10-17T13:42:37;23.20;99.90
16995;DHT22;8614;48.522;9.206;2022-10-17T13:45:15;23.20;99.90
16995;DHT22;8614;48.522;9.206;2022-10-17T13:47:45;23.10;99.90
16995;DHT22;8614;48.522;9.206;2022-10-17T13:50:32;23.10;99.90
16995;DHT22;8614;48.522;9.206;2022-10-17T13:53:07;23.10;99.90
16995;DHT22;8614;48.522;9.206;2022-10-17T13:55:36;23.10;99.90
16995;DHT22;8614;48.522;9.206;2022-10-17T13:58:13;23.10;99.90
16995;DHT22;8614;48.522;9.206;2022-10-17T14:00:40;23.10;99.90
16995;DHT22;8614;48.522;9.206;2022-10-17T14:03:07;23.20;99.90
16995;DHT22;8614;48.522;9.206;2022-10-17T14:06:06;23.10;99.90
16995;DHT22;8614;48.522;9.206;2022-10-17T14:08:36;23.10;99.90
16995;DHT22;8614;48.522;9.206;2022-10-17T14:11:13;23.00;99.90
16995;DHT22;8614;48.522;9.206;2022-10-17T14:13:41;23.10;99.90
16995;DHT22;8614;48.522;9.206;2022-10-17T14:16:09;23.10;99.90
16995;DHT22;8614;48.522;9.206;2022-10-17T14:18:36;23.00;99.90
16995;DHT22;8614;48.522;9.206;2022-10-17T14:21:06;23.00;99.90
16995;DHT22;8614;48.522;9.206;2022-10-17T14:23:36;23.00;99.90
16995;DHT22;8614;48.522;9.206;2022-10-17T14:26:06;22.90;99.90
16995;DHT22;8614;48.522;9.206;2022-10-17T14:28:33;22.90;99.90
16995;DHT22;8614;48.522;9.206;2022-10-17T14:31:20;22.90;99.90
16995;DHT22;8614;48.522;9.206;2022-10-17T14:33:50;22.80;99.90
16995;DHT22;8614;48.522;9.206;2022-10-17T14:36:28;22.80;99.90
16995;DHT22;8614;48.522;9.206;2022-10-17T14:38:55;22.80;99.90
16995;DHT22;8614;48.522;9.206;2022-10-17T14:41:24;22.80;99.90
16995;DHT22;8614;48.522;9.206;2022-10-17T14:43:53;22.80;99.90
16995;DHT22;8614;48.522;9.206;2022-10-17T14:46:20;22.70;99.90
16995;DHT22;8614;48.522;9.206;2022-10-17T14:48:52;22.60;99.90
16995;DHT22;8614;48.522;9.206;2022-10-17T14:51:20;22.60;99.90
16995;DHT22;8614;48.522;9.206;2022-10-17T14:54:03;22.60;99.90
16995;DHT22;8614;48.522;9.206;2022-10-17T14:56:38;22.60;99.90
16995;DHT22;8614;48.522;9.206;2022-10-17T14:59:06;22.60;99.90
16995;DHT22;8614;48.522;9.206;2022-10-17T15:01:35;22.60;99.90
16995;DHT22;8614;48.522;9.206;2022-10-17T15:04:02;22.60;99.90
16995;DHT22;8614;48.522;9.206;2022-10-17T15:06:32;22.50;99.90
16995;DHT22;8614;48.522;9.206;2022-10-17T15:08:59;22.50;99.90
16995;DHT22;8614;48.522;9.206;2022-10-17T15:11:26;22.50;99.90
16995;DHT22;8614;48.522;9.206;2022-10-17T15:13:53;22.40;99.90
16995;DHT22;8614;48.522;9.206;2022-10-17T15:16:22;22.40;99.90
16995;DHT22;8614;48.522;9.206;2022-10-17T15:18:50;22.30;99.90
16995;DHT22;8614;48.522;9.206;2022-10-17T15:21:19;22.30;99.90
16995;DHT22;8614;48.522;9.206;2022-10-17T15:23:47;22.30;99.90
16995;DHT22;8614;48.522;9.206;2022-10-17T15:26:17;22.30;99.90
16995;DHT22;8614;48.522;9.206;2022-10-17T15:28:45;22.30;99.90
16995;DHT22;8614;48.522;9.206;2022-10-17T15:31:15;22.30;99.90
16995;DHT22;8614;48.522;9.206;2022-10-17T15:33:43;22.20;99.90
16995;DHT22;8614;48.522;9.206;2022-10-17T15:36:18;22.20;99.90
16995;DHT22;8614;48.522;9.206;2022-10-17T15:38:47;22.20;99.90
16995;DHT22;8614;48.522;9.206;2022-10-17T15:41:14;22.20;99.90
16995;DHT22;8614;48.522;9.206;2022-10-17T15:43:41;22.10;99.90
16995;DHT22;8614;48.522;9.206;2022-10-17T15:46:12;22.10;99.90
16995;DHT22;8614;48.522;9.206;2022-10-17T15:48:40;22.00;99.90
16995;DHT22;8614;48.522;9.206;2022-10-17T15:51:07;22.00;99.90
16995;DHT22;8614;48.522;9.206;2022-10-17T15:53:34;21.90;99.90
16995;DHT22;8614;48.522;9.206;2022-10-17T15:56:03;21.90;99.90
16995;DHT22;8614;48.522;9.206;2022-10-17T15:58:34;21.80;99.90
16995;DHT22;8614;48.522;9.206;2022-10-17T16:01:02;21.70;99.90
16995;DHT22;8614;48.522;9.206;2022-10-17T16:03:29;21.50;99.90
16995;DHT22;8614;48.522;9.206;2022-10-17T16:05:56;21.40;99.90
16995;DHT22;8614;48.522;9.206;2022-10-17T16:08:24;21.20;99.90
16995;DHT22;8614;48.522;9.206;2022-10-17T16:10:51;21.00;99.90
16995;DHT22;8614;48.522;9.206;2022-10-17T16:13:21;20.80;99.90
16995;DHT22;8614;48.522;9.206;2022-10-17T16:15:48;20.60;99.90
16995;DHT22;8614;48.522;9.206;2022-10-17T16:18:15;20.50;99.90